createdAt,value
2023-02-11T00:01:29.663Z,18.57
2023-02-11T00:03:57.663Z,19.00
2023-02-11T00:06:26.029Z,18.80
2023-02-11T00:08:52.932Z,18.13
2023-02-11T00:11:21.046Z,18.60
2023-02-11T00:13:48.640Z,18.53
2023-02-11T00:16:18.352Z,19.07
2023-02-11T00:18:45.548Z,18.40
2023-02-11T00:21:14.710Z,18.00
2023-02-11T00:23:42.574Z,17.13
2023-02-11T00:26:14.485Z,18.77
2023-02-11T00:28:43.195Z,18.03
2023-02-11T00:31:11.270Z,18.47
2023-02-11T00:33:38.499Z,19.90
2023-02-11T00:36:07.915Z,18.97
2023-02-11T00:38:34.680Z,18.53
2023-02-11T00:41:01.765Z,18.47
2023-02-11T00:43:28.711Z,18.40
2023-02-11T00:45:55.412Z,18.77
2023-02-11T00:48:23.487Z,19.03
2023-02-11T00:50:50.416Z,17.83
2023-02-11T00:53:17.128Z,18.63
2023-02-11T00:55:43.755Z,18.50
2023-02-11T00:58:10.470Z,17.87
2023-02-11T01:00:37.128Z,18.47
2023-02-11T01:03:04.070Z,18.53
2023-02-11T01:05:31.664Z,19.27
2023-02-11T01:07:59.170Z,18.63
2023-02-11T01:10:26.106Z,18.90
2023-02-11T01:12:52.891Z,19.23
2023-02-11T01:15:20.925Z,18.87
2023-02-11T01:17:47.752Z,19.13
2023-02-11T01:20:20.366Z,18.73
2023-02-11T01:22:47.329Z,19.40
2023-02-11T01:25:15.793Z,19.33
2023-02-11T01:27:42.669Z,19.10
2023-02-11T01:30:13.556Z,18.97
2023-02-11T01:32:41.117Z,17.60
2023-02-11T01:35:09.216Z,19.83
2023-02-11T01:37:36.676Z,19.10
2023-02-11T01:40:06.808Z,19.03
2023-02-11T01:42:34.827Z,19.10
2023-02-11T01:45:22.221Z,19.40
2023-02-11T01:47:49.026Z,19.80
2023-02-11T01:50:15.999Z,19.30
2023-02-11T01:52:43.947Z,19.67
2023-02-11T01:55:12.751Z,19.80
2023-02-11T01:57:44.748Z,19.43
2023-02-11T02:00:30.498Z,20.33
2023-02-11T02:03:17.932Z,19.40
2023-02-11T02:06:03.568Z,19.40
2023-02-11T02:08:39.373Z,20.83
2023-02-11T02:11:07.127Z,19.40
2023-02-11T02:13:36.948Z,19.30
2023-02-11T02:16:09.683Z,20.17
2023-02-11T02:19:01.139Z,19.37
2023-02-11T02:21:52.541Z,19.90
2023-02-11T02:24:38.081Z,20.43
2023-02-11T02:27:11.895Z,20.73
2023-02-11T02:30:04.425Z,19.43
2023-02-11T02:32:57.509Z,19.83
2023-02-11T02:35:48.771Z,19.97
2023-02-11T02:38:34.001Z,21.30
2023-02-11T02:41:15.190Z,20.67
2023-02-11T02:43:45.323Z,19.97
2023-02-11T02:46:22.145Z,21.53
2023-02-11T02:48:50.143Z,20.73
2023-02-11T02:51:44.177Z,19.83
2023-02-11T02:54:31.135Z,19.80
2023-02-11T02:57:22.392Z,21.47
2023-02-11T02:59:55.131Z,20.83
2023-02-11T03:02:31.579Z,20.50
2023-02-11T03:05:30.717Z,21.13
2023-02-11T03:08:09.454Z,20.60
2023-02-11T03:10:41.185Z,21.13
2023-02-11T03:13:08.229Z,21.20
2023-02-11T03:15:42.029Z,21.17
2023-02-11T03:18:11.853Z,20.53
2023-02-11T03:20:41.896Z,21.50
2023-02-11T03:23:16.195Z,20.67
2023-02-11T03:25:50.765Z,21.80
2023-02-11T03:28:33.570Z,22.20
2023-02-11T03:31:17.703Z,21.13
2023-02-11T03:34:01.951Z,21.80
2023-02-11T03:36:46.553Z,20.90
2023-02-11T03:39:19.484Z,22.40
2023-02-11T03:41:49.763Z,22.57
2023-02-11T03:44:17.166Z,22.10
2023-02-11T03:46:50.184Z,20.87
2023-02-11T03:49:20.433Z,22.10
2023-02-11T03:51:51.381Z,22.33
2023-02-11T03:54:24.498Z,22.13
2023-02-11T03:56:54.048Z,22.40
2023-02-11T03:59:20.648Z,21.47
2023-02-11T04:01:47.835Z,22.23
2023-02-11T04:04:14.844Z,23.53
2023-02-11T04:06:41.625Z,21.83
2023-02-11T04:09:08.262Z,22.90
2023-02-11T04:11:35.030Z,22.80
2023-02-11T04:14:01.820Z,22.83
2023-02-11T04:16:29.205Z,21.80
2023-02-11T04:18:55.883Z,21.60
2023-02-11T04:21:22.599Z,22.13
2023-02-11T04:23:49.216Z,22.60
2023-02-11T04:26:16.313Z,22.40
2023-02-11T04:28:42.859Z,21.87
2023-02-11T04:31:09.623Z,22.43
2023-02-11T04:33:36.356Z,21.20
2023-02-11T04:36:03.057Z,22.03
2023-02-11T04:38:29.672Z,21.80
2023-02-11T04:40:58.111Z,21.23
2023-02-11T04:43:24.696Z,21.67
2023-02-11T04:45:51.739Z,22.40
2023-02-11T04:48:18.537Z,21.40
2023-02-11T04:50:45.309Z,22.13
2023-02-11T04:53:11.907Z,21.57
2023-02-11T04:55:38.710Z,22.07
2023-02-11T04:58:05.292Z,22.90
2023-02-11T05:00:32.134Z,22.43
2023-02-11T05:02:58.818Z,22.90
2023-02-11T05:05:25.564Z,22.50
2023-02-11T05:07:52.146Z,22.87
2023-02-11T05:10:18.931Z,23.10
2023-02-11T05:12:48.259Z,22.27
2023-02-11T05:15:15.195Z,22.30
2023-02-11T05:17:41.857Z,21.50
2023-02-11T05:20:09.249Z,23.43
2023-02-11T05:22:35.830Z,23.17
2023-02-11T05:25:02.604Z,21.90
2023-02-11T05:27:29.281Z,22.97
2023-02-11T05:29:55.966Z,21.70
2023-02-11T05:32:23.071Z,22.87
2023-02-11T05:34:49.795Z,23.07
2023-02-11T05:37:16.428Z,23.60
2023-02-11T05:39:43.220Z,22.10
2023-02-11T05:42:09.844Z,22.70
2023-02-11T05:44:36.612Z,22.83
2023-02-11T05:47:03.450Z,22.57
2023-02-11T05:49:30.387Z,23.23
2023-02-11T05:51:57.326Z,22.80
2023-02-11T05:54:24.067Z,23.17
2023-02-11T05:56:50.667Z,22.27
2023-02-11T05:59:17.406Z,22.57
2023-02-11T06:01:44.405Z,22.47
2023-02-11T06:04:11.295Z,23.13
2023-02-11T06:06:38.050Z,23.63
2023-02-11T06:09:04.964Z,23.20
2023-02-11T06:11:31.709Z,23.27
2023-02-11T06:13:58.381Z,23.70
2023-02-11T06:16:25.184Z,23.17
2023-02-11T06:18:51.891Z,23.23
2023-02-11T06:21:18.691Z,23.07
2023-02-11T06:23:46.626Z,24.20
2023-02-11T06:26:22.112Z,22.27
2023-02-11T06:28:49.131Z,23.63
2023-02-11T06:31:16.711Z,24.20
2023-02-11T06:33:44.032Z,23.10
2023-02-11T06:36:17.299Z,23.10
2023-02-11T06:38:44.317Z,24.63
2023-02-11T06:41:12.840Z,23.73
2023-02-11T06:43:40.333Z,23.23
2023-02-11T06:46:08.536Z,23.30
2023-02-11T06:48:35.801Z,22.90
2023-02-11T06:51:08.169Z,23.07
2023-02-11T06:53:37.062Z,24.33
2023-02-11T06:56:09.086Z,21.87
2023-02-11T06:58:36.832Z,24.40
2023-02-11T07:01:11.759Z,22.87
2023-02-11T07:03:45.447Z,23.07
2023-02-11T07:06:17.739Z,23.93
2023-02-11T07:08:46.028Z,23.80
2023-02-11T07:11:24.395Z,23.07
2023-02-11T07:13:53.400Z,22.83
2023-02-11T07:16:20.533Z,22.97
2023-02-11T07:18:48.686Z,23.67
2023-02-11T07:21:18.801Z,22.43
2023-02-11T07:23:46.310Z,22.27
2023-02-11T07:26:18.021Z,23.87
2023-02-11T07:28:46.899Z,24.60
2023-02-11T07:31:28.160Z,24.53
2023-02-11T07:33:57.059Z,24.33
2023-02-11T07:36:23.790Z,24.63
2023-02-11T07:38:50.705Z,23.93
2023-02-11T07:41:20.472Z,24.47
2023-02-11T07:43:47.612Z,23.57
2023-02-11T07:46:21.253Z,24.33
2023-02-11T07:48:48.476Z,24.60
2023-02-11T07:51:16.219Z,25.27
2023-02-11T07:53:43.612Z,24.27
2023-02-11T07:56:12.153Z,24.63
2023-02-11T07:58:39.420Z,24.97
2023-02-11T08:01:09.026Z,24.20
2023-02-11T08:03:37.828Z,24.83
2023-02-11T08:06:10.729Z,25.27
2023-02-11T08:08:38.706Z,24.43
2023-02-11T08:11:18.191Z,24.53
2023-02-11T08:13:45.709Z,23.87
2023-02-11T08:16:23.146Z,24.20
2023-02-11T08:18:51.206Z,24.90
2023-02-11T08:21:18.374Z,26.07
2023-02-11T08:23:46.380Z,24.90
2023-02-11T08:26:19.611Z,24.53
2023-02-11T08:28:48.186Z,24.73
2023-02-11T08:31:21.000Z,25.20
2023-02-11T08:33:48.798Z,23.80
2023-02-11T08:36:22.515Z,24.57
2023-02-11T08:38:49.457Z,26.13
2023-02-11T08:41:17.918Z,24.97
2023-02-11T08:43:46.007Z,25.27
2023-02-11T08:46:15.660Z,24.47
2023-02-11T08:48:43.654Z,24.33
2023-02-11T08:51:15.333Z,25.23
2023-02-11T08:53:42.336Z,24.97
2023-02-11T08:56:12.237Z,25.13
2023-02-11T08:58:40.484Z,23.47
2023-02-11T09:01:23.090Z,25.47
2023-02-11T09:03:50.058Z,23.70
2023-02-11T09:06:16.932Z,23.67
2023-02-11T09:08:46.482Z,24.63
2023-02-11T09:11:13.637Z,24.13
2023-02-11T09:13:41.398Z,24.07
2023-02-11T09:16:08.354Z,24.53
2023-02-11T09:18:35.061Z,24.90
2023-02-11T09:21:03.696Z,24.40
2023-02-11T09:23:30.846Z,25.37
2023-02-11T09:25:57.471Z,23.60
2023-02-11T09:28:24.251Z,23.97
2023-02-11T09:30:52.626Z,24.13
2023-02-11T09:33:19.547Z,23.83
2023-02-11T09:35:46.145Z,24.37
2023-02-11T09:38:12.886Z,22.77
2023-02-11T09:40:45.157Z,22.97
2023-02-11T09:43:33.155Z,24.43
2023-02-11T09:46:00.916Z,24.30
2023-02-11T09:48:34.727Z,23.10
2023-02-11T09:51:04.042Z,23.77
2023-02-11T09:53:42.245Z,23.70
2023-02-11T09:56:15.423Z,24.77
2023-02-11T09:58:44.270Z,23.97
2023-02-11T10:01:35.653Z,23.53
2023-02-11T10:04:42.851Z,23.93
2023-02-11T10:07:29.679Z,25.50
2023-02-11T10:10:23.249Z,23.13
2023-02-11T10:13:32.943Z,23.67
2023-02-11T10:16:32.966Z,24.30
2023-02-11T10:20:18.057Z,23.10
2023-02-11T10:29:41.437Z,23.00
2023-02-11T10:32:26.860Z,22.80
2023-02-11T10:34:59.359Z,24.57
2023-02-11T10:37:26.220Z,25.03
2023-02-11T10:39:52.942Z,23.53
2023-02-11T10:42:19.740Z,24.53
2023-02-11T10:44:54.552Z,23.60
2023-02-11T10:47:24.433Z,23.13
2023-02-11T10:49:54.195Z,23.30
2023-02-11T10:52:24.567Z,23.80
2023-02-11T10:55:11.707Z,23.83
2023-02-11T10:57:49.880Z,22.87
2023-02-11T11:00:43.244Z,23.20
2023-02-11T11:03:22.022Z,22.67
2023-02-11T11:05:57.427Z,22.83
2023-02-11T11:08:46.725Z,23.80
2023-02-11T11:11:19.753Z,24.17
2023-02-11T11:13:52.691Z,22.53
2023-02-11T11:16:19.560Z,22.23
2023-02-11T11:18:50.899Z,22.57
2023-02-11T11:21:25.587Z,22.43
2023-02-11T11:24:01.781Z,21.10
2023-02-11T11:26:44.960Z,21.40
2023-02-11T11:29:17.877Z,21.20
2023-02-11T11:31:59.566Z,20.70
2023-02-11T11:34:43.674Z,21.27
2023-02-11T11:37:29.550Z,20.77
2023-02-11T11:40:24.525Z,20.47
2023-02-11T11:43:23.354Z,21.20
2023-02-11T11:45:59.348Z,20.80
2023-02-11T11:48:53.726Z,20.33
2023-02-11T11:51:41.810Z,20.63
2023-02-11T11:54:18.098Z,20.30
2023-02-11T11:57:05.543Z,20.10
2023-02-11T11:59:33.496Z,19.87
2023-02-11T12:02:29.730Z,21.10
2023-02-11T12:05:23.457Z,21.07
2023-02-11T12:08:09.153Z,20.40
2023-02-11T12:11:01.150Z,20.97
2023-02-11T12:13:52.976Z,23.03
2023-02-11T12:16:31.061Z,22.83
2023-02-11T12:19:10.397Z,20.90
2023-02-11T12:22:12.582Z,22.07
2023-02-11T12:24:53.948Z,22.67
2023-02-11T12:27:26.624Z,22.60
2023-02-11T12:30:08.150Z,22.83
2023-02-11T12:32:53.456Z,23.07
2023-02-11T12:35:39.239Z,22.57
2023-02-11T12:38:23.493Z,22.37
2023-02-11T12:41:01.892Z,22.93
2023-02-11T12:43:40.836Z,22.40
2023-02-11T12:46:43.229Z,22.53
2023-02-11T12:49:28.565Z,21.77
2023-02-11T12:52:14.175Z,22.53
2023-02-11T12:54:48.661Z,22.50
2023-02-11T12:57:23.454Z,22.23
2023-02-11T13:00:13.833Z,23.13
2023-02-11T13:03:06.289Z,22.23
2023-02-11T13:05:36.018Z,22.50
2023-02-11T13:08:12.219Z,22.50
2023-02-11T13:10:43.497Z,22.70
2023-02-11T13:13:25.337Z,22.60
2023-02-11T13:15:58.585Z,21.53
2023-02-11T13:18:52.259Z,22.83
2023-02-11T13:21:29.407Z,22.10
2023-02-11T13:24:01.494Z,20.97
2023-02-11T13:26:50.315Z,21.97
2023-02-11T13:29:30.090Z,21.70
2023-02-11T13:32:11.088Z,22.77
2023-02-11T13:34:43.939Z,22.60
2023-02-11T13:37:26.275Z,22.37
2023-02-11T13:40:01.112Z,22.20
2023-02-11T13:42:29.928Z,22.60
2023-02-11T13:44:57.011Z,22.67
2023-02-11T13:47:31.717Z,22.23
2023-02-11T13:50:00.588Z,22.37
2023-02-11T13:52:30.821Z,21.57
2023-02-11T13:55:04.769Z,21.00
2023-02-11T13:57:36.518Z,20.97
2023-02-11T14:00:44.409Z,22.20
2023-02-11T14:03:12.512Z,20.73
2023-02-11T14:06:07.938Z,21.60
2023-02-11T14:08:36.329Z,21.37
2023-02-11T14:11:10.970Z,21.40
2023-02-11T14:14:03.404Z,22.90
2023-02-11T14:16:37.932Z,21.83
2023-02-11T14:19:05.577Z,20.83
2023-02-11T14:21:36.472Z,24.00
2023-02-11T14:24:03.144Z,24.23
2023-02-11T14:26:58.366Z,22.73
2023-02-11T14:29:44.104Z,22.90
2023-02-11T14:32:45.912Z,21.53
2023-02-11T14:35:38.898Z,22.07
2023-02-11T14:38:18.005Z,23.20
2023-02-11T14:40:50.190Z,22.30
2023-02-11T14:43:22.654Z,21.80
2023-02-11T14:45:55.592Z,23.20
2023-02-11T14:48:29.484Z,24.23
2023-02-11T14:51:06.774Z,22.00
2023-02-11T14:53:34.883Z,22.47
2023-02-11T14:56:01.528Z,22.77
2023-02-11T14:58:31.100Z,22.93
2023-02-11T15:01:06.768Z,24.97
2023-02-11T15:03:38.970Z,23.20
2023-02-11T15:06:22.310Z,23.40
2023-02-11T15:08:52.928Z,22.87
2023-02-11T15:11:22.367Z,21.37
2023-02-11T15:13:50.020Z,21.70
2023-02-11T15:16:21.072Z,22.17
2023-02-11T15:18:56.832Z,23.70
2023-02-11T15:21:26.411Z,25.00
2023-02-11T15:24:09.250Z,24.50
2023-02-11T15:26:35.928Z,26.80
2023-02-11T15:29:02.518Z,22.60
2023-02-11T15:31:30.112Z,23.03
2023-02-11T15:34:07.206Z,23.37
2023-02-11T15:36:34.092Z,24.03
2023-02-11T15:39:31.404Z,24.50
2023-02-11T15:42:23.568Z,22.43
2023-02-11T15:45:09.090Z,24.73
2023-02-11T15:47:36.244Z,23.47
2023-02-11T15:50:03.289Z,25.00
2023-02-11T15:52:30.940Z,23.47
2023-02-11T15:55:00.603Z,24.93
2023-02-11T15:57:28.330Z,24.33
2023-02-11T15:59:55.925Z,24.47
2023-02-11T16:02:32.260Z,24.37
2023-02-11T16:05:03.046Z,25.43
2023-02-11T16:07:41.779Z,25.57
2023-02-11T16:10:31.377Z,27.93
2023-02-11T16:13:07.199Z,25.80
2023-02-11T16:15:33.863Z,25.67
2023-02-11T16:18:03.455Z,27.70
2023-02-11T16:20:30.745Z,26.97
2023-02-11T16:22:57.564Z,30.40
2023-02-11T16:25:24.347Z,25.53
2023-02-11T16:27:54.548Z,33.03
2023-02-11T16:30:42.173Z,27.83
2023-02-11T16:33:11.296Z,82.27
2023-02-11T16:35:37.874Z,32.50
2023-02-11T16:38:05.564Z,37.20
2023-02-11T16:40:32.258Z,65.47
2023-02-11T16:42:58.929Z,87.07
2023-02-11T16:45:25.679Z,53.90
2023-02-11T16:47:52.816Z,80.87
2023-02-11T16:50:22.873Z,37.23
2023-02-11T16:52:49.860Z,34.13
2023-02-11T16:55:16.667Z,30.07
2023-02-11T16:57:43.353Z,29.17
2023-02-11T17:00:11.557Z,27.80
2023-02-11T17:02:39.024Z,28.87
2023-02-11T17:05:15.446Z,27.03
2023-02-11T17:07:42.143Z,28.23
2023-02-11T17:10:27.385Z,36.70
2023-02-11T17:12:55.177Z,28.40
2023-02-11T17:15:21.770Z,29.40
2023-02-11T17:17:48.441Z,27.90
2023-02-11T17:20:15.788Z,27.17
2023-02-11T17:22:42.577Z,29.87
2023-02-11T17:25:09.446Z,27.97
2023-02-11T17:27:36.201Z,28.37
2023-02-11T17:30:03.354Z,27.13
2023-02-11T17:32:32.177Z,27.50
2023-02-11T17:34:58.834Z,27.43
2023-02-11T17:37:25.588Z,27.17
2023-02-11T17:39:52.179Z,27.73
2023-02-11T17:42:19.011Z,27.70
2023-02-11T17:44:45.935Z,26.13
2023-02-11T17:47:15.286Z,28.10
2023-02-11T17:49:43.517Z,28.40
2023-02-11T17:52:10.291Z,28.00
2023-02-11T17:54:38.041Z,27.47
2023-02-11T17:57:05.360Z,26.87
2023-02-11T17:59:32.028Z,26.80
2023-02-11T18:01:58.691Z,27.30
2023-02-11T18:04:26.657Z,27.80
2023-02-11T18:06:56.682Z,28.03
2023-02-11T18:09:29.438Z,27.73
2023-02-11T18:12:06.214Z,26.10
2023-02-11T18:14:41.460Z,28.97
2023-02-11T18:17:09.477Z,28.90
2023-02-11T18:22:43.897Z,27.80
2023-02-11T18:25:27.323Z,29.17
2023-02-11T18:27:55.373Z,27.80
2023-02-11T18:30:22.725Z,27.73
2023-02-11T18:32:54.210Z,26.77
2023-02-11T18:35:21.347Z,27.70
2023-02-11T18:37:48.752Z,28.37
2023-02-11T18:40:16.014Z,27.50
2023-02-11T18:42:42.900Z,26.83
2023-02-11T18:45:12.813Z,27.47
2023-02-11T18:47:40.069Z,26.63
2023-02-11T18:50:10.152Z,26.17
2023-02-11T18:52:36.838Z,28.27
2023-02-11T18:55:04.909Z,26.13
2023-02-11T18:57:36.307Z,28.03
2023-02-11T19:00:03.800Z,25.90
2023-02-11T19:02:31.659Z,26.87
2023-02-11T19:05:00.100Z,28.00
2023-02-11T19:07:27.805Z,26.83
2023-02-11T19:09:55.974Z,26.83
2023-02-11T19:12:22.655Z,26.57
2023-02-11T19:14:49.386Z,25.73
2023-02-11T19:17:16.208Z,26.50
2023-02-11T19:19:43.051Z,27.03
2023-02-11T19:22:10.793Z,25.77
2023-02-11T19:24:37.915Z,26.83
2023-02-11T19:27:05.256Z,26.20
2023-02-11T19:29:57.804Z,27.83
2023-02-11T19:32:25.102Z,27.13
2023-02-11T19:34:52.031Z,27.70
2023-02-11T19:37:18.900Z,27.77
2023-02-11T19:39:47.281Z,28.97
2023-02-11T19:42:14.090Z,28.63
2023-02-11T19:44:41.865Z,29.17
2023-02-11T19:47:12.685Z,28.40
2023-02-11T19:49:39.989Z,27.97
2023-02-11T19:52:37.089Z,27.93
2023-02-11T19:55:50.602Z,26.70
2023-02-11T19:58:42.889Z,26.30
2023-02-11T20:01:32.408Z,27.03
2023-02-11T20:04:08.843Z,26.90
2023-02-11T20:06:51.676Z,27.73
2023-02-11T20:09:29.096Z,26.80
2023-02-11T20:12:14.762Z,26.73
2023-02-11T20:15:04.747Z,28.47
2023-02-11T20:17:50.048Z,28.07
2023-02-11T20:23:42.196Z,29.50
2023-02-11T20:26:36.757Z,28.90
2023-02-11T20:32:38.311Z,26.17
2023-02-11T20:35:20.415Z,27.40
2023-02-11T20:37:48.567Z,26.53
2023-02-11T20:40:16.872Z,27.17
2023-02-11T20:42:44.508Z,26.80
2023-02-11T20:45:13.683Z,27.50
2023-02-11T20:51:01.086Z,25.20
2023-02-11T20:54:06.524Z,27.63
2023-02-11T20:56:59.353Z,26.43
2023-02-11T20:59:26.707Z,26.50
2023-02-11T21:01:56.010Z,28.10
2023-02-11T21:04:27.593Z,29.27
2023-02-11T21:06:57.688Z,26.80
2023-02-11T21:09:27.864Z,27.73
2023-02-11T21:11:55.406Z,28.07
2023-02-11T21:14:23.385Z,26.83
2023-02-11T21:16:52.301Z,27.07
2023-02-11T21:19:21.616Z,26.13
2023-02-11T21:21:51.384Z,26.13
2023-02-11T21:24:23.109Z,26.30
2023-02-11T21:26:49.842Z,24.77
2023-02-11T21:29:16.652Z,26.77
2023-02-11T21:31:43.427Z,26.23
2023-02-11T21:34:10.334Z,26.00
2023-02-11T21:36:41.130Z,26.13
2023-02-11T21:43:16.916Z,26.87
2023-02-11T21:50:02.715Z,26.10
2023-02-11T21:56:34.079Z,26.03
2023-02-11T21:59:49.962Z,26.70
2023-02-11T22:02:30.280Z,26.60
2023-02-11T22:05:01.360Z,26.20
2023-02-11T22:07:48.680Z,26.50
2023-02-11T22:10:22.478Z,26.60
2023-02-11T22:12:52.346Z,26.27
2023-02-11T22:15:24.247Z,26.30
2023-02-11T22:17:52.856Z,27.13
2023-02-11T22:20:19.739Z,28.13
2023-02-11T22:22:53.901Z,26.20
2023-02-11T22:25:22.304Z,25.93
2023-02-11T22:28:00.599Z,26.53
2023-02-11T22:30:46.855Z,26.50
2023-02-11T22:33:27.580Z,26.40
2023-02-11T22:36:27.300Z,26.33
2023-02-11T22:39:13.332Z,26.07
2023-02-11T22:42:06.676Z,27.17
2023-02-11T22:44:56.023Z,25.83
2023-02-11T22:47:30.644Z,25.57
2023-02-11T22:49:59.873Z,25.63
2023-02-11T22:52:30.977Z,26.03
2023-02-11T22:55:14.471Z,26.13
2023-02-11T23:06:36.474Z,26.07
2023-02-11T23:11:52.818Z,25.43
2023-02-11T23:14:32.797Z,25.33
2023-02-11T23:17:06.868Z,26.63
2023-02-11T23:22:45.301Z,26.57
2023-02-11T23:25:55.968Z,25.30
2023-02-11T23:28:51.629Z,25.33
2023-02-11T23:31:25.688Z,26.53
2023-02-11T23:33:58.451Z,25.27
2023-02-11T23:36:38.920Z,25.20
2023-02-11T23:39:07.370Z,25.47
2023-02-11T23:41:38.365Z,26.30
2023-02-11T23:44:08.023Z,25.87
2023-02-11T23:46:38.665Z,26.30
2023-02-11T23:49:07.414Z,25.77
2023-02-11T23:51:34.018Z,26.47
2023-02-11T23:54:01.871Z,25.53
2023-02-11T23:56:28.918Z,26.23
2023-02-11T23:58:58.803Z,24.37
